Terminal Aerodrome Forecast
Issued by NWS Central Illinois

Home | Current Version | Previous Version | Text Only | Print | Product List | Glossary On
Versions: 1 2 3 4 5 6 7 8 9 10 11 12 13 14
326
FTUS43 KILX 262348
TAFSPI
TAF
KSPI 262348Z 2700/2724 VRB04KT P6SM VCTS SCT050CB OVC200
     FM270400 13004KT 5SM -SHRA VCTS OVC045CB
     FM271100 21004KT P6SM VCTS OVC030CB
     FM271500 28004KT P6SM VCTS OVC020CB
     FM271800 33005KT P6SM BKN020=

USA.gov is the U.S. government's official web portal to all federal, state and local government web resources and services.